Time;durP1;ratioP1;P1;durP2;ratioP2;P2;SDS_P1;SDS_P2;PMS_P1;PMS_P2;Temp;Humidity;BMP_temperature;BMP_pressure;BME280_temperature;BME280_humidity;BME280_pressure;Samples;Min_cycle;Max_cycle;Signal;HPM_P1;HPM_P2
2022/10/14 00:01:22;;;;;;;22.83;19.00;;;13.60;99.90;;;;;;5090204;28;20461;-67
2022/10/14 00:03:50;;;;;;;22.17;19.77;;;13.70;99.90;;;;;;5091922;28;20462;-67
2022/10/14 00:06:19;;;;;;;23.40;21.30;;;13.70;99.90;;;;;;5091254;28;20537;-68
2022/10/14 00:08:47;;;;;;;23.47;20.97;;;13.60;99.90;;;;;;5086149;28;21091;-68
2022/10/14 00:11:16;;;;;;;24.93;22.33;;;13.60;99.90;;;;;;5088520;28;20489;-68
2022/10/14 00:13:45;;;;;;;27.53;23.63;;;13.60;99.90;;;;;;5085284;28;20458;-67
2022/10/14 00:16:17;;;;;;;27.90;24.83;;;13.60;99.90;;;;;;5092296;28;20502;-68
2022/10/14 00:18:44;;;;;;;27.83;24.40;;;13.60;99.90;;;;;;5088285;28;20956;-66
2022/10/14 00:21:11;;;;;;;33.33;25.17;;;13.60;99.90;;;;;;5090798;28;20817;-67
2022/10/14 00:23:38;;;;;;;29.97;26.50;;;13.60;99.90;;;;;;5089246;28;20487;-66
2022/10/14 00:26:05;;;;;;;27.13;24.60;;;13.60;99.90;;;;;;5089839;28;20453;-65
2022/10/14 00:28:32;;;;;;;34.27;25.67;;;13.60;99.90;;;;;;5089715;28;20482;-66
2022/10/14 00:31:01;;;;;;;33.87;27.30;;;13.60;99.90;;;;;;5091695;28;20564;-67
2022/10/14 00:33:29;;;;;;;38.27;27.73;;;13.60;99.90;;;;;;5090211;28;20961;-69
2022/10/14 00:35:57;;;;;;;33.63;27.40;;;13.60;99.90;;;;;;5090910;28;20486;-66
2022/10/14 00:38:24;;;;;;;30.13;27.20;;;13.50;99.90;;;;;;5090975;27;20455;-67
2022/10/14 00:40:52;;;;;;;34.67;27.97;;;13.50;99.90;;;;;;5092288;28;21286;-67
2022/10/14 00:43:19;;;;;;;33.30;26.77;;;13.50;99.90;;;;;;5092403;28;20469;-66
2022/10/14 00:45:46;;;;;;;41.80;28.47;;;13.50;99.90;;;;;;5094586;28;20937;-67
2022/10/14 00:48:16;;;;;;;30.83;27.80;;;13.50;99.90;;;;;;5089841;28;20462;-69
2022/10/14 00:50:45;;;;;;;31.97;28.70;;;13.50;99.90;;;;;;5089007;28;20473;-67
2022/10/14 00:53:14;;;;;;;32.07;28.53;;;13.40;99.90;;;;;;5090750;28;20763;-69
2022/10/14 00:55:42;;;;;;;31.13;27.60;;;13.50;99.90;;;;;;5093002;28;20581;-67
2022/10/14 00:58:10;;;;;;;31.10;28.40;;;13.50;99.90;;;;;;5093924;28;20461;-67
2022/10/14 01:00:37;;;;;;;30.10;27.50;;;13.50;99.90;;;;;;5089667;28;20469;-67
2022/10/14 01:03:08;;;;;;;28.40;25.50;;;13.40;99.90;;;;;;5093946;28;20991;-68
2022/10/14 01:05:40;;;;;;;33.67;28.90;;;13.40;99.90;;;;;;5090249;28;20482;-69
2022/10/14 01:08:10;;;;;;;31.47;28.33;;;13.40;99.90;;;;;;5088432;28;20465;-67
2022/10/14 01:10:43;;;;;;;29.90;27.00;;;13.40;99.90;;;;;;5093444;28;20974;-68
2022/10/14 01:13:21;;;;;;;30.60;27.33;;;13.30;99.90;;;;;;5093306;28;20454;-68
2022/10/14 01:15:56;;;;;;;31.33;28.40;;;13.30;99.90;;;;;;5093332;28;20460;-68
2022/10/14 01:18:44;;;;;;;29.53;27.00;;;13.30;99.90;;;;;;5088475;28;20466;-67
2022/10/14 01:21:20;;;;;;;28.83;26.00;;;13.30;99.90;;;;;;5086097;28;20500;-66
2022/10/14 01:24:23;;;;;;;30.27;27.23;;;13.30;99.90;;;;;;5085739;28;20462;-67
2022/10/14 01:27:15;;;;;;;29.23;25.77;;;13.30;99.90;;;;;;5086158;28;20895;-66
2022/10/14 01:30:13;;;;;;;33.10;25.80;;;13.20;99.90;;;;;;5086184;28;20465;-67
2022/10/14 01:32:59;;;;;;;32.50;26.93;;;13.20;99.90;;;;;;5087846;28;20893;-68
2022/10/14 01:35:35;;;;;;;29.00;26.10;;;13.20;99.90;;;;;;5091585;28;20458;-68
2022/10/14 01:38:06;;;;;;;28.30;25.30;;;13.20;99.90;;;;;;5091359;28;20462;-67
2022/10/14 01:40:39;;;;;;;28.23;25.87;;;13.20;99.90;;;;;;5084989;28;20968;-68
2022/10/14 01:43:06;;;;;;;27.27;24.63;;;13.20;99.90;;;;;;5088364;28;21096;-67
2022/10/14 01:45:37;;;;;;;26.07;24.00;;;13.20;99.90;;;;;;5090026;28;20468;-67
2022/10/14 01:48:06;;;;;;;26.07;23.60;;;13.20;99.90;;;;;;5090930;28;21011;-67
2022/10/14 01:50:36;;;;;;;25.20;23.00;;;13.30;99.90;;;;;;5092636;28;20554;-67
2022/10/14 01:53:06;;;;;;;26.03;23.77;;;13.30;99.90;;;;;;5091597;28;20490;-67
2022/10/14 01:55:37;;;;;;;26.33;23.67;;;13.30;99.90;;;;;;5091841;28;20457;-68
2022/10/14 01:58:07;;;;;;;23.07;21.17;;;13.30;99.90;;;;;;5092797;28;20468;-67
2022/10/14 02:00:37;;;;;;;25.93;23.37;;;13.30;99.90;;;;;;5087823;28;20462;-68
2022/10/14 02:03:04;;;;;;;25.03;22.70;;;13.30;99.90;;;;;;5082542;28;20461;-66
2022/10/14 02:05:37;;;;;;;26.03;23.23;;;13.40;99.90;;;;;;5084537;28;20911;-68
2022/10/14 02:08:11;;;;;;;25.73;23.10;;;13.40;99.90;;;;;;5094374;28;20511;-67
2022/10/14 02:10:50;;;;;;;25.20;22.97;;;13.40;99.90;;;;;;5087479;28;20460;-67
2022/10/14 02:13:30;;;;;;;26.50;23.50;;;13.50;99.90;;;;;;5089803;28;20489;-67
2022/10/14 02:16:09;;;;;;;24.93;22.53;;;13.50;99.90;;;;;;5087663;28;20469;-68
2022/10/14 02:18:43;;;;;;;27.10;24.20;;;13.40;99.90;;;;;;5088639;28;20461;-67
2022/10/14 02:21:16;;;;;;;24.67;22.40;;;13.40;99.90;;;;;;5090921;28;20886;-67
2022/10/14 02:23:47;;;;;;;25.30;23.13;;;13.40;99.90;;;;;;5086513;28;20461;-67
2022/10/14 02:26:15;;;;;;;28.23;24.23;;;13.40;99.90;;;;;;5088862;28;20487;-67
2022/10/14 02:28:44;;;;;;;25.60;22.83;;;13.30;99.90;;;;;;5089094;28;20534;-67
2022/10/14 02:31:16;;;;;;;28.73;22.03;;;13.30;99.90;;;;;;5091775;28;20545;-66
2022/10/14 02:33:47;;;;;;;23.47;21.47;;;13.30;99.90;;;;;;5089604;28;20910;-68
2022/10/14 02:36:17;;;;;;;25.50;23.30;;;13.30;99.90;;;;;;5088138;28;20473;-67
2022/10/14 02:38:47;;;;;;;24.77;22.20;;;13.30;99.90;;;;;;5090417;28;20984;-67
2022/10/14 02:41:19;;;;;;;23.57;21.63;;;13.30;99.90;;;;;;5091661;28;20464;-68
2022/10/14 02:43:46;;;;;;;27.27;23.50;;;13.30;99.90;;;;;;5082272;28;20999;-67
2022/10/14 02:46:14;;;;;;;28.80;23.20;;;13.30;99.90;;;;;;5086672;28;20572;-67
2022/10/14 02:48:42;;;;;;;38.60;23.63;;;13.30;99.90;;;;;;5087050;28;20991;-67
2022/10/14 02:51:09;;;;;;;25.93;23.07;;;13.30;99.90;;;;;;5086353;28;20576;-67
2022/10/14 02:53:36;;;;;;;25.50;23.20;;;13.30;99.90;;;;;;5092254;28;20519;-69
2022/10/14 02:56:02;;;;;;;25.03;22.53;;;13.30;99.90;;;;;;5096358;28;20465;-67
2022/10/14 02:58:29;;;;;;;26.93;24.37;;;13.30;99.90;;;;;;5087817;28;20468;-67
2022/10/14 03:00:56;;;;;;;28.27;24.13;;;13.20;99.90;;;;;;5081024;28;20502;-69
2022/10/14 03:03:24;;;;;;;27.10;23.63;;;13.30;99.90;;;;;;5093023;28;21058;-68
2022/10/14 03:05:52;;;;;;;26.37;22.73;;;13.20;99.90;;;;;;5092591;28;20454;-69
2022/10/14 03:08:19;;;;;;;31.50;22.90;;;13.20;99.90;;;;;;5093470;28;20489;-68
2022/10/14 03:10:46;;;;;;;27.87;24.10;;;13.30;99.90;;;;;;5092209;28;20948;-68
2022/10/14 03:13:15;;;;;;;29.73;24.50;;;13.30;99.90;;;;;;5092458;28;20555;-67
2022/10/14 03:15:41;;;;;;;26.57;24.00;;;13.30;99.90;;;;;;5089519;28;20820;-69
2022/10/14 03:18:09;;;;;;;25.13;22.90;;;13.30;99.90;;;;;;5085164;28;20458;-68
2022/10/14 03:20:37;;;;;;;28.17;24.13;;;13.20;99.90;;;;;;5096231;28;20465;-69
2022/10/14 03:23:04;;;;;;;26.63;23.67;;;13.20;99.90;;;;;;5092978;28;20503;-67
2022/10/14 03:25:31;;;;;;;28.53;24.70;;;13.20;99.90;;;;;;5093716;28;20460;-68
2022/10/14 03:27:57;;;;;;;26.10;23.50;;;13.20;99.90;;;;;;5089851;28;20484;-67
2022/10/14 03:30:24;;;;;;;35.17;23.83;;;13.30;99.90;;;;;;5096050;28;20801;-68
2022/10/14 03:32:51;;;;;;;24.47;22.07;;;13.30;99.90;;;;;;5092313;28;20504;-68
2022/10/14 03:35:18;;;;;;;25.30;22.90;;;13.20;99.90;;;;;;5091246;28;20458;-67
2022/10/14 03:37:46;;;;;;;26.13;23.70;;;13.20;99.90;;;;;;5094342;28;20469;-67
2022/10/14 03:40:13;;;;;;;26.67;23.87;;;13.20;99.90;;;;;;5090393;28;20480;-68
2022/10/14 03:42:41;;;;;;;31.20;25.20;;;13.20;99.90;;;;;;5092650;28;20465;-68
2022/10/14 03:45:08;;;;;;;27.50;25.00;;;13.20;99.90;;;;;;5095134;28;20461;-68
2022/10/14 03:47:35;;;;;;;29.67;24.83;;;13.10;99.90;;;;;;5095997;28;20464;-68
2022/10/14 03:50:03;;;;;;;25.27;22.80;;;13.10;99.90;;;;;;5091542;28;20472;-68
2022/10/14 03:52:30;;;;;;;25.20;22.97;;;13.10;99.90;;;;;;5095522;28;21024;-68
2022/10/14 03:54:59;;;;;;;25.30;22.83;;;13.20;99.90;;;;;;5094375;28;20458;-67
2022/10/14 03:57:25;;;;;;;25.67;23.37;;;13.20;99.90;;;;;;5091066;28;20652;-68
2022/10/14 03:59:52;;;;;;;26.17;23.17;;;13.30;99.90;;;;;;5090786;28;20469;-68
2022/10/14 04:02:19;;;;;;;26.13;23.30;;;13.20;99.90;;;;;;5080503;28;20845;-68
2022/10/14 04:04:46;;;;;;;28.20;24.20;;;13.10;99.90;;;;;;5091699;28;20449;-68
2022/10/14 04:07:13;;;;;;;26.10;23.70;;;13.10;99.90;;;;;;5084026;28;20465;-67
2022/10/14 04:09:40;;;;;;;31.63;23.30;;;13.10;99.90;;;;;;5082983;28;20461;-68
2022/10/14 04:12:08;;;;;;;27.37;24.37;;;13.10;99.90;;;;;;5084801;28;20824;-68
2022/10/14 04:14:34;;;;;;;33.73;26.80;;;13.10;99.90;;;;;;5088155;28;20948;-69
2022/10/14 04:17:01;;;;;;;26.87;24.23;;;13.10;99.90;;;;;;5085365;28;20474;-68
2022/10/14 04:19:28;;;;;;;29.20;24.87;;;13.10;99.90;;;;;;5086169;28;20457;-68
2022/10/14 04:21:56;;;;;;;25.53;23.30;;;13.10;99.90;;;;;;5084986;28;20481;-69
2022/10/14 04:24:23;;;;;;;27.20;24.50;;;13.10;99.90;;;;;;5086678;28;20877;-68
2022/10/14 04:26:51;;;;;;;25.23;22.63;;;13.10;99.90;;;;;;5090786;28;20482;-68
2022/10/14 04:29:20;;;;;;;24.90;22.27;;;13.10;99.90;;;;;;5089922;28;20489;-68
2022/10/14 04:31:47;;;;;;;28.13;23.83;;;13.00;99.90;;;;;;5089930;28;20494;-69
2022/10/14 04:34:14;;;;;;;25.50;23.30;;;13.00;99.90;;;;;;5084130;28;20465;-70
2022/10/14 04:36:41;;;;;;;23.97;21.80;;;13.00;99.90;;;;;;5088647;28;20481;-68
2022/10/14 04:39:08;;;;;;;25.73;22.13;;;13.00;99.90;;;;;;5088467;28;20464;-69
2022/10/14 04:41:34;;;;;;;25.80;22.87;;;13.10;99.90;;;;;;5090416;28;20489;-68
2022/10/14 04:44:01;;;;;;;26.13;23.17;;;13.10;99.90;;;;;;5089053;28;20670;-67
2022/10/14 04:46:30;;;;;;;24.80;21.90;;;13.10;99.90;;;;;;5085821;28;20539;-69
2022/10/14 04:48:57;;;;;;;25.63;22.90;;;13.10;99.90;;;;;;5083844;28;20857;-68
2022/10/14 04:51:23;;;;;;;26.00;23.40;;;13.10;99.90;;;;;;5091787;28;20841;-68
2022/10/14 04:53:50;;;;;;;24.43;22.20;;;13.10;99.90;;;;;;5092543;28;20496;-69
2022/10/14 04:56:17;;;;;;;25.17;22.70;;;13.10;99.90;;;;;;5092460;28;20518;-69
2022/10/14 04:58:44;;;;;;;24.03;22.20;;;13.10;99.90;;;;;;5083984;28;20457;-68
2022/10/14 05:01:11;;;;;;;27.13;22.67;;;13.10;99.90;;;;;;5086952;28;20458;-67
2022/10/14 05:03:39;;;;;;;23.50;21.40;;;13.10;99.90;;;;;;5090729;28;20457;-68
2022/10/14 05:06:06;;;;;;;22.53;20.20;;;13.10;99.90;;;;;;5087194;28;20465;-67
2022/10/14 05:08:33;;;;;;;22.53;20.70;;;13.10;99.90;;;;;;5088439;28;20495;-68
2022/10/14 05:11:01;;;;;;;28.53;21.60;;;13.10;99.90;;;;;;5085301;28;20493;-68
2022/10/14 05:13:28;;;;;;;22.77;20.90;;;13.10;99.90;;;;;;5090614;28;20973;-67
2022/10/14 05:15:56;;;;;;;24.47;22.27;;;13.20;99.90;;;;;;5089015;28;20458;-68
2022/10/14 05:18:23;;;;;;;23.03;20.83;;;13.20;99.90;;;;;;5088229;28;20469;-67
2022/10/14 05:20:51;;;;;;;23.57;21.23;;;13.20;99.90;;;;;;5088167;28;20465;-68
2022/10/14 05:23:18;;;;;;;22.77;20.87;;;13.20;99.90;;;;;;5087237;28;20473;-68
2022/10/14 05:25:45;;;;;;;22.73;20.63;;;13.20;99.90;;;;;;5090409;28;20468;-68
2022/10/14 05:28:12;;;;;;;23.33;21.33;;;13.10;99.90;;;;;;5084588;28;20490;-69
2022/10/14 05:30:38;;;;;;;24.67;22.20;;;13.10;99.90;;;;;;5088387;28;20497;-70
2022/10/14 05:33:05;;;;;;;24.67;20.97;;;13.20;99.90;;;;;;5090143;28;20496;-69
2022/10/14 05:35:32;;;;;;;23.27;21.03;;;13.20;99.90;;;;;;5085573;28;20495;-67
2022/10/14 05:38:00;;;;;;;23.30;21.40;;;13.20;99.90;;;;;;5090923;28;20480;-67
2022/10/14 05:40:27;;;;;;;21.90;20.30;;;13.20;99.90;;;;;;5082726;28;20465;-68
2022/10/14 05:42:54;;;;;;;24.43;21.70;;;13.30;99.90;;;;;;5085330;28;21118;-67
2022/10/14 05:45:22;;;;;;;23.43;21.10;;;13.30;99.90;;;;;;5091839;28;20980;-68
2022/10/14 05:47:49;;;;;;;21.73;19.97;;;13.20;99.90;;;;;;5090438;28;20473;-68
2022/10/14 05:50:16;;;;;;;23.27;21.30;;;13.20;99.90;;;;;;5080507;28;20857;-67
2022/10/14 05:52:42;;;;;;;23.27;21.17;;;13.20;99.90;;;;;;5088046;28;20496;-68
2022/10/14 05:55:11;;;;;;;23.37;20.83;;;13.30;99.90;;;;;;5086698;28;20824;-68
2022/10/14 05:57:38;;;;;;;23.93;21.77;;;13.30;99.90;;;;;;5084608;28;20463;-68
2022/10/14 06:00:06;;;;;;;24.03;21.90;;;13.30;99.90;;;;;;5091142;28;20464;-67
2022/10/14 06:02:33;;;;;;;22.93;21.00;;;13.20;99.90;;;;;;5088436;28;20469;-68
2022/10/14 06:05:00;;;;;;;24.23;21.77;;;13.20;99.90;;;;;;5080751;28;20717;-68
2022/10/14 06:07:27;;;;;;;22.20;20.30;;;13.20;99.90;;;;;;5083464;28;20909;-68
2022/10/14 06:09:53;;;;;;;22.90;20.77;;;13.30;99.90;;;;;;5089825;28;20469;-68
2022/10/14 06:12:22;;;;;;;23.73;21.53;;;13.30;99.90;;;;;;5085779;28;20821;-68
2022/10/14 06:14:48;;;;;;;23.77;21.00;;;13.30;99.90;;;;;;5087589;28;21228;-70
2022/10/14 06:17:15;;;;;;;23.00;20.77;;;13.30;99.90;;;;;;5090563;28;23278;-68
2022/10/14 06:19:42;;;;;;;22.13;20.07;;;13.30;99.90;;;;;;5083320;28;21170;-69
2022/10/14 06:22:09;;;;;;;28.03;21.40;;;13.20;99.90;;;;;;5087963;28;20504;-67
2022/10/14 06:24:36;;;;;;;24.67;20.90;;;13.20;99.90;;;;;;5084545;28;20458;-67
2022/10/14 06:27:02;;;;;;;21.67;19.93;;;13.20;99.90;;;;;;5084265;28;20486;-68
2022/10/14 06:29:36;;;;;;;23.07;20.50;;;13.30;99.90;;;;;;5087008;28;20461;-68
2022/10/14 06:32:04;;;;;;;22.37;20.13;;;13.30;99.90;;;;;;5082559;28;20980;-69
2022/10/14 06:34:31;;;;;;;23.00;20.80;;;13.30;99.90;;;;;;5088638;28;20886;-68
2022/10/14 06:36:59;;;;;;;21.43;19.33;;;13.30;99.90;;;;;;5076460;28;20458;-67
2022/10/14 06:39:25;;;;;;;22.37;20.23;;;13.30;99.90;;;;;;5079559;28;20470;-68
2022/10/14 06:41:52;;;;;;;21.87;19.97;;;13.30;99.90;;;;;;5078909;28;20474;-70
2022/10/14 06:44:19;;;;;;;20.13;18.50;;;13.40;99.90;;;;;;5079450;28;20461;-68
2022/10/14 06:46:47;;;;;;;21.20;19.27;;;13.30;99.90;;;;;;5090770;28;20884;-67
2022/10/14 06:49:14;;;;;;;21.70;19.80;;;13.40;99.90;;;;;;5086591;28;20705;-67
2022/10/14 06:51:41;;;;;;;20.43;18.67;;;13.40;99.90;;;;;;5082252;28;20859;-67
2022/10/14 06:54:08;;;;;;;21.00;19.20;;;13.40;99.90;;;;;;5086275;28;20490;-68
2022/10/14 06:56:35;;;;;;;21.30;19.47;;;13.40;99.90;;;;;;5080444;28;21178;-67
2022/10/14 06:59:02;;;;;;;20.43;18.70;;;13.40;99.90;;;;;;5082528;28;20497;-70
2022/10/14 07:01:29;;;;;;;19.30;18.00;;;13.40;99.90;;;;;;5082778;28;20462;-70
2022/10/14 07:03:57;;;;;;;20.00;18.50;;;13.40;99.90;;;;;;5086035;28;20457;-70
2022/10/14 07:06:24;;;;;;;18.60;17.30;;;13.40;99.90;;;;;;5083655;28;20462;-70
2022/10/14 07:08:51;;;;;;;20.23;18.30;;;13.40;99.90;;;;;;5081416;28;20500;-71
2022/10/14 07:11:18;;;;;;;19.13;17.27;;;13.50;99.90;;;;;;5084622;28;20840;-70
2022/10/14 07:13:44;;;;;;;18.07;16.60;;;13.50;99.90;;;;;;5087149;28;20481;-70
2022/10/14 07:16:11;;;;;;;20.90;17.80;;;13.60;99.90;;;;;;5080970;28;20871;-70
2022/10/14 07:18:38;;;;;;;32.43;18.07;;;13.50;99.90;;;;;;5095564;27;20511;-71
2022/10/14 07:21:07;;;;;;;23.50;18.00;;;13.60;99.90;;;;;;5103461;27;21037;-71
2022/10/14 07:23:34;;;;;;;23.37;17.60;;;13.60;99.90;;;;;;5103355;27;20484;-70
2022/10/14 07:26:01;;;;;;;18.97;17.07;;;13.50;99.90;;;;;;5107272;27;20507;-70
2022/10/14 07:28:28;;;;;;;18.07;16.47;;;13.70;99.90;;;;;;5106375;27;20503;-70
2022/10/14 07:31:00;;;;;;;18.57;16.73;;;13.60;99.90;;;;;;5111992;27;20456;-71
2022/10/14 07:33:27;;;;;;;18.70;16.70;;;13.60;99.90;;;;;;5103568;27;21016;-70
2022/10/14 07:35:54;;;;;;;18.10;16.70;;;13.70;99.90;;;;;;5102722;27;20472;-71
2022/10/14 07:38:22;;;;;;;18.13;16.67;;;13.60;99.90;;;;;;5105799;27;20449;-70
2022/10/14 07:41:00;;;;;;;16.83;15.50;;;13.70;99.90;;;;;;5106686;27;20461;-70
2022/10/14 07:43:27;;;;;;;17.47;15.83;;;13.80;99.90;;;;;;5104013;27;20511;-71
2022/10/14 07:45:59;;;;;;;17.73;16.20;;;13.80;99.90;;;;;;5107544;27;20464;-71
2022/10/14 07:48:27;;;;;;;18.00;16.80;;;13.80;99.90;;;;;;5104916;27;20495;-71
2022/10/14 07:50:54;;;;;;;16.43;15.40;;;13.80;99.90;;;;;;5103192;27;20488;-70
2022/10/14 07:53:22;;;;;;;17.60;16.43;;;14.00;99.90;;;;;;5104761;27;20492;-70
2022/10/14 07:55:52;;;;;;;17.67;15.77;;;14.00;99.90;;;;;;5108510;27;20468;-72
2022/10/14 07:58:21;;;;;;;17.20;15.40;;;14.10;99.90;;;;;;5113032;27;20457;-70
2022/10/14 08:00:49;;;;;;;17.37;15.80;;;14.10;99.90;;;;;;5103302;27;20477;-68
2022/10/14 08:03:17;;;;;;;16.33;14.83;;;14.20;99.90;;;;;;5104175;27;20986;-68
2022/10/14 08:05:44;;;;;;;15.60;14.20;;;14.20;99.90;;;;;;5111291;27;20459;-68
2022/10/14 08:08:11;;;;;;;16.17;14.77;;;14.20;99.90;;;;;;5105428;27;20464;-68
2022/10/14 08:10:40;;;;;;;16.30;15.10;;;14.20;99.90;;;;;;5109739;27;20652;-69
2022/10/14 08:13:07;;;;;;;16.73;15.33;;;14.20;99.90;;;;;;5110757;27;20479;-68
2022/10/14 08:15:37;;;;;;;16.20;14.80;;;14.20;99.90;;;;;;5109444;27;20468;-68
2022/10/14 08:18:05;;;;;;;14.90;13.73;;;14.20;99.90;;;;;;5104764;27;20461;-69
2022/10/14 08:20:32;;;;;;;16.23;14.97;;;14.30;99.90;;;;;;5107251;27;20532;-68
2022/10/14 08:22:59;;;;;;;15.67;14.47;;;14.40;99.90;;;;;;5107476;27;20491;-68
2022/10/14 08:25:27;;;;;;;14.40;13.40;;;14.40;99.90;;;;;;5108434;27;20488;-70
2022/10/14 08:27:56;;;;;;;14.90;13.80;;;14.50;99.90;;;;;;5108913;27;20485;-68
2022/10/14 08:30:24;;;;;;;13.53;12.63;;;14.40;99.90;;;;;;5110509;27;20552;-68
2022/10/14 08:32:50;;;;;;;14.13;13.13;;;14.40;99.90;;;;;;5102251;27;20543;-69
2022/10/14 08:35:18;;;;;;;14.50;13.20;;;14.40;99.90;;;;;;5105641;27;20745;-70
2022/10/14 08:37:44;;;;;;;13.10;12.20;;;14.40;99.90;;;;;;5108723;27;20481;-68
2022/10/14 08:40:16;;;;;;;13.47;12.30;;;14.50;99.90;;;;;;5101760;27;20460;-68
2022/10/14 08:42:50;;;;;;;14.17;12.40;;;14.50;99.90;;;;;;5104143;27;20451;-69
2022/10/14 08:45:25;;;;;;;14.50;13.40;;;14.60;99.90;;;;;;5104227;27;20511;-68
2022/10/14 08:47:55;;;;;;;13.37;12.37;;;14.50;99.90;;;;;;5111142;27;20468;-68
2022/10/14 08:50:28;;;;;;;12.80;11.90;;;14.50;99.90;;;;;;5110030;27;20481;-68
2022/10/14 08:53:00;;;;;;;14.07;12.80;;;14.70;99.90;;;;;;5105079;27;20492;-68
2022/10/14 08:55:33;;;;;;;13.30;12.03;;;14.90;99.90;;;;;;5100833;27;21004;-68
2022/10/14 08:58:04;;;;;;;13.67;12.47;;;15.00;99.90;;;;;;5101641;27;20818;-68
2022/10/14 09:00:35;;;;;;;13.60;12.60;;;15.00;99.90;;;;;;5105810;27;20466;-68
2022/10/14 09:03:10;;;;;;;13.20;12.20;;;15.10;99.90;;;;;;5101906;27;20454;-70
2022/10/14 09:05:39;;;;;;;14.23;12.73;;;15.10;99.90;;;;;;5106777;27;20464;-69
2022/10/14 09:08:07;;;;;;;14.23;12.47;;;15.20;99.90;;;;;;5104146;28;20694;-68
2022/10/14 09:10:36;;;;;;;13.63;12.47;;;15.30;99.90;;;;;;5105785;27;20462;-70
2022/10/14 09:13:11;;;;;;;13.27;12.07;;;15.40;99.90;;;;;;5107158;27;20465;-68
2022/10/14 09:15:42;;;;;;;14.53;13.23;;;15.50;99.90;;;;;;5102662;27;20503;-70
2022/10/14 09:18:20;;;;;;;14.93;13.37;;;15.40;99.90;;;;;;5100682;27;20465;-69
2022/10/14 09:20:48;;;;;;;13.53;12.53;;;15.50;99.90;;;;;;5106976;27;20554;-68
2022/10/14 09:23:17;;;;;;;14.10;12.87;;;15.60;99.90;;;;;;5105081;27;20507;-68
2022/10/14 09:25:53;;;;;;;13.63;12.37;;;15.70;99.90;;;;;;5102961;27;20465;-69
2022/10/14 09:28:20;;;;;;;14.00;12.73;;;15.80;99.90;;;;;;5105219;27;20998;-70
2022/10/14 09:30:48;;;;;;;13.63;12.63;;;15.80;99.90;;;;;;5101505;27;20966;-70
2022/10/14 09:33:19;;;;;;;14.33;13.30;;;15.90;99.90;;;;;;5104280;27;21028;-71
2022/10/14 09:35:47;;;;;;;14.43;13.13;;;16.00;99.90;;;;;;5105170;27;20573;-69
2022/10/14 09:38:15;;;;;;;14.00;12.90;;;16.00;99.90;;;;;;5102251;27;20469;-68
2022/10/14 09:40:45;;;;;;;14.13;13.00;;;16.10;99.90;;;;;;5100897;27;20464;-68
2022/10/14 09:43:17;;;;;;;14.73;13.63;;;16.10;99.90;;;;;;5100616;27;20489;-70
2022/10/14 09:45:52;;;;;;;15.90;14.70;;;16.20;99.90;;;;;;5099103;27;20573;-71
2022/10/14 09:48:30;;;;;;;15.27;13.97;;;16.20;99.90;;;;;;5102967;27;20460;-70
2022/10/14 09:50:59;;;;;;;16.23;14.73;;;16.10;99.90;;;;;;5107831;27;20982;-70
2022/10/14 09:53:29;;;;;;;16.13;14.70;;;16.10;99.90;;;;;;5108711;27;20472;-68
2022/10/14 09:55:58;;;;;;;16.10;14.73;;;16.00;99.90;;;;;;5110668;27;20460;-68
2022/10/14 09:58:30;;;;;;;14.90;13.60;;;16.00;99.90;;;;;;5104350;27;20794;-71
2022/10/14 10:01:01;;;;;;;15.23;13.73;;;15.90;99.90;;;;;;5101558;27;20551;-71
2022/10/14 10:03:31;;;;;;;15.67;14.23;;;15.80;99.90;;;;;;5100322;28;20804;-69
2022/10/14 10:06:03;;;;;;;14.60;13.40;;;15.80;99.90;;;;;;5104505;27;20805;-70
2022/10/14 10:08:31;;;;;;;17.67;14.47;;;15.80;99.90;;;;;;5102903;27;20671;-72
2022/10/14 10:11:00;;;;;;;15.30;13.70;;;15.80;99.90;;;;;;5100364;27;20453;-70
2022/10/14 10:13:43;;;;;;;15.27;13.90;;;15.90;99.90;;;;;;5104645;27;20468;-68
2022/10/14 10:16:21;;;;;;;15.83;14.70;;;16.00;99.90;;;;;;5102241;27;20460;-70
2022/10/14 10:18:48;;;;;;;17.00;15.23;;;16.00;99.90;;;;;;5100179;27;20471;-69
2022/10/14 10:21:18;;;;;;;16.60;15.20;;;15.90;99.90;;;;;;5104552;28;20568;-68
2022/10/14 10:23:55;;;;;;;28.60;16.07;;;16.00;99.90;;;;;;5106851;27;20464;-68
2022/10/14 10:26:26;;;;;;;18.20;16.70;;;16.10;99.90;;;;;;5104106;27;20488;-69
2022/10/14 10:28:56;;;;;;;22.40;20.10;;;16.00;99.90;;;;;;5100187;28;20640;-67
2022/10/14 10:31:38;;;;;;;22.17;20.07;;;16.00;99.90;;;;;;5100647;28;20904;-68
2022/10/14 10:34:21;;;;;;;22.47;20.57;;;15.90;99.90;;;;;;5105524;28;20477;-67
2022/10/14 10:36:56;;;;;;;22.60;20.53;;;15.80;99.90;;;;;;5100403;28;20628;-67
2022/10/14 10:39:30;;;;;;;22.67;20.80;;;15.70;99.90;;;;;;5104342;28;20517;-67
2022/10/14 10:42:06;;;;;;;24.83;22.50;;;15.50;99.90;;;;;;5105746;28;20575;-69
2022/10/14 10:44:57;;;;;;;24.20;21.70;;;15.50;99.90;;;;;;5106545;28;20835;-69
2022/10/14 10:47:33;;;;;;;21.80;20.10;;;15.40;99.90;;;;;;5097793;28;20585;-69
2022/10/14 10:50:38;;;;;;;22.60;20.77;;;15.40;99.90;;;;;;5102239;28;20468;-69
2022/10/14 10:53:28;;;;;;;22.37;20.00;;;15.40;99.90;;;;;;5104366;28;20453;-68
2022/10/14 10:56:11;;;;;;;20.30;18.80;;;15.50;99.90;;;;;;5104891;28;20484;-69
2022/10/14 10:58:43;;;;;;;20.93;19.07;;;15.60;99.90;;;;;;5098643;28;20476;-69
2022/10/14 11:01:20;;;;;;;20.87;19.00;;;15.70;99.90;;;;;;5103013;28;20458;-70
2022/10/14 11:04:01;;;;;;;22.57;20.30;;;15.70;99.90;;;;;;5098533;28;20970;-70
2022/10/14 11:12:21;;;;;;;20.90;19.23;;;15.90;99.90;;;;;;5095884;28;20495;-70
2022/10/14 11:15:16;;;;;;;21.93;20.03;;;16.00;99.90;;;;;;5104001;28;20889;-70
2022/10/14 11:17:48;;;;;;;23.93;21.50;;;16.10;99.90;;;;;;5103348;28;20876;-70
2022/10/14 11:20:27;;;;;;;21.93;19.90;;;16.20;99.90;;;;;;5105741;28;20500;-70
2022/10/14 11:23:21;;;;;;;26.43;21.30;;;16.20;99.90;;;;;;5100774;28;21120;-69
2022/10/14 11:25:54;;;;;;;22.60;20.37;;;16.30;99.90;;;;;;5105991;28;20868;-69
2022/10/14 11:28:28;;;;;;;23.07;20.70;;;16.30;99.90;;;;;;5105286;28;20767;-70
2022/10/14 11:31:04;;;;;;;25.83;23.20;;;16.40;99.90;;;;;;5107403;27;20860;-69
2022/10/14 11:33:48;;;;;;;31.57;21.93;;;16.30;99.90;;;;;;5107566;27;20894;-69
2022/10/14 11:36:27;;;;;;;26.93;21.27;;;16.30;99.90;;;;;;5101529;27;21030;-70
2022/10/14 11:39:08;;;;;;;23.43;21.13;;;16.40;99.90;;;;;;5104101;27;20824;-69
2022/10/14 11:41:49;;;;;;;27.03;20.87;;;16.40;99.90;;;;;;5108594;27;20559;-70
2022/10/14 11:44:25;;;;;;;23.73;21.07;;;16.30;99.90;;;;;;5107932;27;20868;-69
2022/10/14 11:46:55;;;;;;;25.43;20.60;;;16.30;99.90;;;;;;5104071;27;20915;-69
2022/10/14 11:49:26;;;;;;;22.87;20.70;;;16.40;99.90;;;;;;5103423;27;20457;-69
2022/10/14 11:51:58;;;;;;;26.90;21.37;;;16.30;99.90;;;;;;5107766;27;20457;-69
2022/10/14 11:54:32;;;;;;;25.80;21.10;;;16.30;99.90;;;;;;5107188;27;20552;-70
2022/10/14 11:57:04;;;;;;;22.40;20.27;;;16.30;99.90;;;;;;5106650;27;20798;-70
2022/10/14 11:59:44;;;;;;;22.80;20.47;;;16.40;99.90;;;;;;5102489;27;20457;-69
2022/10/14 12:02:25;;;;;;;22.43;20.20;;;16.40;99.90;;;;;;5104647;27;20469;-71
2022/10/14 12:04:56;;;;;;;22.53;20.13;;;16.30;99.90;;;;;;5105455;27;20482;-69
2022/10/14 12:07:33;;;;;;;24.03;20.00;;;16.30;99.90;;;;;;5103287;27;20461;-70
2022/10/14 12:10:03;;;;;;;23.63;20.00;;;16.20;99.90;;;;;;5101734;27;20449;-70
2022/10/14 12:12:32;;;;;;;22.77;20.43;;;16.20;99.90;;;;;;5097915;27;20990;-69
2022/10/14 12:15:03;;;;;;;22.93;20.93;;;16.30;99.90;;;;;;5099467;28;20492;-69
2022/10/14 12:17:33;;;;;;;24.73;22.37;;;16.30;99.90;;;;;;5104952;27;20468;-69
2022/10/14 12:20:14;;;;;;;23.27;20.90;;;16.30;99.90;;;;;;5109798;27;20778;-69
2022/10/14 12:22:43;;;;;;;22.97;21.00;;;16.20;99.90;;;;;;5104383;27;20484;-68
2022/10/14 12:25:16;;;;;;;23.00;21.20;;;16.20;99.90;;;;;;5106005;27;20457;-70
2022/10/14 12:27:43;;;;;;;22.23;20.57;;;16.20;99.90;;;;;;5101627;27;20497;-71
2022/10/14 12:30:32;;;;;;;22.33;20.30;;;16.20;99.90;;;;;;5101512;27;20488;-69
2022/10/14 12:33:01;;;;;;;23.90;21.60;;;16.30;99.90;;;;;;5101611;27;20963;-69
2022/10/14 12:35:52;;;;;;;22.20;20.50;;;16.20;99.90;;;;;;5106295;27;20579;-69
2022/10/14 12:38:21;;;;;;;21.33;19.70;;;16.10;99.90;;;;;;5102927;27;20469;-69
2022/10/14 12:40:48;;;;;;;22.37;20.30;;;16.10;99.90;;;;;;5104536;27;20645;-69
2022/10/14 12:43:25;;;;;;;20.80;19.40;;;16.10;99.90;;;;;;5104838;27;20536;-70
2022/10/14 12:46:10;;;;;;;20.43;18.67;;;16.00;99.90;;;;;;5108390;27;20864;-68
2022/10/14 12:48:44;;;;;;;22.93;21.00;;;16.00;99.90;;;;;;5106508;27;20461;-70
2022/10/14 12:51:14;;;;;;;25.17;21.90;;;16.00;99.90;;;;;;5099296;27;20467;-69